15:45
Airports
History
Links
Donate
Help keep this website running!
PayPal
Bitcoin
This page is community maintained. The information is intended for PC simulator navigation or reference.
Always use approved charts for navigation.
SSHL
Fazenda Jussara
Fazenda Jussara (SSHL)
Jussara, Parana, Brazil (87230)
4
Lat/Lng:23° 34' 30" S / 52° 24' 30" W
-23.575 / -52.408333
Elevation:1213'ft / 370mMSL
ID / ICAO:SSHL
Runways:1
Longest:09-27
Dirt 805m / 2,640ft
Nearby Weather15:00 GMT 2018-02-20
Nearby weather at SBMG, REGIONAL DE MARINGA SILVIO NAME JUNIOR located 25.8 nautical miles from SSHL
Altimeter: 29.80
Visibility: 6.2 statute miles
Wind: 7 knots (from 340°)
Temp: 23°c / 73°f
Humidity: 83.2%

METAR: SBMG 201500Z 34007KT 9999 BKN012 SCT100 23/20 Q1009

(Powered by phpweather)
Runway 09 / 27
Dimensions:804.7 x 22.9m 2640' x 75'ft
Surface:Dirt
Runway 09 [A]Runway 27 [B]
Heading:071°TH 251°TH
Lat:
Lng:
23° 34' 34.15"S
52° 24' 43.46"W
23° 34' 25.85"S
52° 24' 16.54"W
User Notes and Comments
23° 34' 30" S / 52° 24' 30" W
Distance To
Airport ID:
Nearby Airports
(C) Cianorte 16.8 NM
SSCT WSW 241°
(U) REGIONAL DE MARINGA SILVIO NAME JUNIOR 25.8 NM
SBMG ( WX ) ENE 74°
4 Fazenda Tres Minas 26.1 NM
SSMP ESE 104°
4 Pousada das Aguias 26.5 NM
SSXO NE 41°
(C) Campo Mourao 30.2 NM
SSKM S 173°
(C) Paranavai 33.9 NM
SSPI N 351°
4 Fazenda Barbacena 36.8 NM
SJBW ESE 119°
VFR Chart
Flight Planning at SkyVector.com